Gerd Maersk — OYGM2 — position and weather

sailwx.info

Track history (hours):
 
Tides and Currents Weather Stations Pressure Air Temp Water Temp Dewpoint Dewpoint Depression Visibility Wind Speed Wind Dir Waves Ship Positions

Gerd Maersk

Last reported at 2017-Jan-12 17:30 UTC. Time now 2017-Jan-23 00:24 UTC.
Position N 02°20' E 101°49'.
Warning: this ship's position is 10 days out of date.

Length 367 m; draft 14.9 m.

Type: Ship (hazmat cat A). MMSI: 220415000.

Date/timePositionNaut miles runAvg speedWind from/ knotsBaromVisibWave heightAir tempDewpointWater temp
2017-Jan-12 17:30N 02°20' E 101°49'1818.8
2017-Jan-12 16:32N 02°09' E 102°03'1818.0
2017-Jan-12 15:31N 01°57' E 102°16'1717.0
2017-Jan-12 14:33N 01°49' E 102°31'1616.1
2017-Jan-12 13:32N 01°42' E 102°46'1616.2
2017-Jan-12 12:33N 01°33' E 102°59'1717.3
2017-Jan-12 11:33N 01°23' E 103°13'3417.0
2017-Jan-12 09:32N 01°08' E 103°44'7 7.2
2017-Jan-12 08:33N 01°15' E 103°46'1 1.0
2017-Jan-12 07:24N 01°16' E 103°46'0 0.0
2017-Jan-12 06:30N 01°16' E 103°46'0 0.0
2017-Jan-12 05:30N 01°16' E 103°46'0 0.0
2017-Jan-12 04:24N 01°16' E 103°46'0 0.0
2017-Jan-12 03:24N 01°16' E 103°46'0 0.1
2017-Jan-12 02:30N 01°16' E 103°46'0 0.0
2017-Jan-12 01:30N 01°16' E 103°46'0 0.1
2017-Jan-12 00:30N 01°16' E 103°46'0 0.0
2017-Jan-11 23:30N 01°16' E 103°46'0 0.0
2017-Jan-11 18:33N 01°16' E 103°46'0 0.0
2017-Jan-11 12:24N 01°16' E 103°46'0 0.0
2017-Jan-11 11:18N 01°16' E 103°46'0 0.0
2017-Jan-11 10:24N 01°16' E 103°46'0 0.0
2017-Jan-11 07:30N 01°16' E 103°46'0 0.0
2017-Jan-11 05:12N 01°16' E 103°46'0 0.0
2017-Jan-11 04:30N 01°16' E 103°46'0 0.0
2017-Jan-11 03:30N 01°16' E 103°46'0 0.0
2017-Jan-11 02:30N 01°16' E 103°46'0 0.1
2017-Jan-11 01:33N 01°16' E 103°46'6 5.6
2017-Jan-11 00:23N 01°13' E 103°52'4 5.1
2017-Jan-10 23:33N 01°14' E 103°56'6 5.7
2017-Jan-10 22:30N 01°16' E 104°02'  
2017-Jan-02 22:20N 30°37' E 122°03'  
Track history (hours):
 
Tides and Currents Weather Stations Pressure Air Temp Water Temp Dewpoint Dewpoint Depression Visibility Wind Speed Wind Dir Waves Ship Positions

Gerd Maersk

Last reported at 2017-Jan-12 17:30 UTC. Time now 2017-Jan-23 00:24 UTC.
Position N 02°20' E 101°49'.
Warning: this ship's position is 10 days out of date.

Length 367 m; draft 14.9 m.

Type: Ship (hazmat cat A). MMSI: 220415000.

Date/timePositionNaut miles runAvg speedWind from/ knotsBaromVisibWave heightAir tempDewpointWater temp
2017-Jan-12 17:30N 02°20' E 101°49'1818.8
2017-Jan-12 16:32N 02°09' E 102°03'1818.0
2017-Jan-12 15:31N 01°57' E 102°16'1717.0
2017-Jan-12 14:33N 01°49' E 102°31'1616.1
2017-Jan-12 13:32N 01°42' E 102°46'1616.2
2017-Jan-12 12:33N 01°33' E 102°59'1717.3
2017-Jan-12 11:33N 01°23' E 103°13'3417.0
2017-Jan-12 09:32N 01°08' E 103°44'7 7.2
2017-Jan-12 08:33N 01°15' E 103°46'1 1.0
2017-Jan-12 07:24N 01°16' E 103°46'0 0.0
2017-Jan-12 06:30N 01°16' E 103°46'0 0.0
2017-Jan-12 05:30N 01°16' E 103°46'0 0.0
2017-Jan-12 04:24N 01°16' E 103°46'0 0.0
2017-Jan-12 03:24N 01°16' E 103°46'0 0.1
2017-Jan-12 02:30N 01°16' E 103°46'0 0.0
2017-Jan-12 01:30N 01°16' E 103°46'0 0.1
2017-Jan-12 00:30N 01°16' E 103°46'0 0.0
2017-Jan-11 23:30N 01°16' E 103°46'0 0.0
2017-Jan-11 18:33N 01°16' E 103°46'0 0.0
2017-Jan-11 12:24N 01°16' E 103°46'0 0.0
2017-Jan-11 11:18N 01°16' E 103°46'0 0.0
2017-Jan-11 10:24N 01°16' E 103°46'0 0.0
2017-Jan-11 07:30N 01°16' E 103°46'0 0.0
2017-Jan-11 05:12N 01°16' E 103°46'0 0.0
2017-Jan-11 04:30N 01°16' E 103°46'0 0.0
2017-Jan-11 03:30N 01°16' E 103°46'0 0.0
2017-Jan-11 02:30N 01°16' E 103°46'0 0.1
2017-Jan-11 01:33N 01°16' E 103°46'6 5.6
2017-Jan-11 00:23N 01°13' E 103°52'4 5.1
2017-Jan-10 23:33N 01°14' E 103°56'6 5.7
2017-Jan-10 22:30N 01°16' E 104°02'  
2017-Jan-02 22:20N 30°37' E 122°03'  

Dump ship's entire track history